createdAt,value
2023-01-13T00:01:25.128Z,-20.84
2023-01-13T00:04:28.348Z,-20.87
2023-01-13T00:07:32.061Z,-20.98
2023-01-13T00:10:35.927Z,-21.02
2023-01-13T00:13:39.853Z,-21.13
2023-01-13T00:16:43.524Z,-21.30
2023-01-13T00:19:47.503Z,-21.49
2023-01-13T00:22:51.226Z,-21.51
2023-01-13T00:25:58.175Z,-21.41
2023-01-13T00:29:01.816Z,-21.48
2023-01-13T00:32:06.689Z,-21.37
2023-01-13T00:35:10.471Z,-21.28
2023-01-13T00:38:14.525Z,-21.07
2023-01-13T00:41:20.733Z,-21.02
2023-01-13T00:44:24.497Z,-21.12
2023-01-13T00:47:28.138Z,-21.09
2023-01-13T00:50:32.017Z,-21.08
2023-01-13T00:53:38.808Z,-20.95
2023-01-13T00:56:42.474Z,-20.95
2023-01-13T00:59:46.183Z,-20.85
2023-01-13T01:02:50.908Z,-20.66
2023-01-13T01:05:54.202Z,-20.25
2023-01-13T01:08:58.401Z,-19.94
2023-01-13T01:12:02.425Z,-19.79
2023-01-13T01:15:10.559Z,-19.58
2023-01-13T01:18:14.411Z,-19.27
2023-01-13T01:21:18.181Z,-19.24
2023-01-13T01:24:21.599Z,-19.13
2023-01-13T01:27:25.983Z,-19.02
2023-01-13T01:30:29.560Z,-18.81
2023-01-13T01:33:33.690Z,-18.76
2023-01-13T01:36:37.620Z,-18.50
2023-01-13T01:39:40.585Z,-18.51
2023-01-13T01:43:02.827Z,-18.36
2023-01-13T01:46:06.695Z,-18.37
2023-01-13T01:49:26.882Z,-18.16
2023-01-13T01:52:58.265Z,-17.93
2023-01-13T01:56:03.097Z,-17.52
2023-01-13T01:59:06.831Z,-17.25
2023-01-13T02:02:10.803Z,-17.16
2023-01-13T02:05:15.521Z,-17.06
2023-01-13T02:08:19.600Z,-16.99
2023-01-13T02:11:55.762Z,-16.76
2023-01-13T02:15:22.300Z,-16.83
2023-01-13T02:19:02.214Z,-16.80
2023-01-13T02:22:08.984Z,-16.85
2023-01-13T02:25:42.750Z,-16.87
2023-01-13T02:29:43.054Z,-16.87
2023-01-13T02:32:52.183Z,-16.71
2023-01-13T02:35:55.157Z,-16.59
2023-01-13T02:39:05.378Z,-16.16
2023-01-13T02:42:32.604Z,-15.99
2023-01-13T02:45:47.338Z,-15.81
2023-01-13T02:48:53.387Z,-15.62
2023-01-13T02:52:05.503Z,-15.66
2023-01-13T02:55:16.294Z,-15.49
2023-01-13T02:58:25.285Z,-15.55
2023-01-13T03:01:29.728Z,-15.48
2023-01-13T03:04:52.193Z,-15.60
2023-01-13T03:08:02.065Z,-15.69
2023-01-13T03:11:12.478Z,-15.72
2023-01-13T03:14:22.341Z,-15.58
2023-01-13T03:17:39.811Z,-15.39
2023-01-13T03:20:53.865Z,-15.17
2023-01-13T03:24:08.354Z,-14.99
2023-01-13T03:27:17.507Z,-15.00
2023-01-13T03:30:42.729Z,-15.28
2023-01-13T03:33:51.275Z,-15.17
2023-01-13T03:36:56.872Z,-15.10
2023-01-13T03:40:04.776Z,-15.00
2023-01-13T03:43:33.192Z,-15.10
2023-01-13T03:46:48.642Z,-15.11
2023-01-13T03:50:32.538Z,-15.16
2023-01-13T03:53:50.050Z,-15.06
2023-01-13T03:57:02.451Z,-14.96
2023-01-13T04:00:07.955Z,-15.24
2023-01-13T04:03:39.429Z,-15.51
2023-01-13T04:06:56.218Z,-15.59
2023-01-13T04:10:03.415Z,-15.64
2023-01-13T04:13:11.756Z,-15.62
2023-01-13T04:16:15.372Z,-15.62
2023-01-13T04:19:19.100Z,-15.63
2023-01-13T04:22:22.713Z,-15.64
2023-01-13T04:25:26.412Z,-15.62
2023-01-13T04:28:29.340Z,-15.61
2023-01-13T04:31:33.298Z,-15.92
2023-01-13T04:34:36.423Z,-16.02
2023-01-13T04:37:41.343Z,-15.88
2023-01-13T04:40:44.630Z,-16.01
2023-01-13T04:43:47.751Z,-15.84
2023-01-13T04:46:50.670Z,-15.80
2023-01-13T04:49:54.062Z,-15.72
2023-01-13T04:52:57.979Z,-15.75
2023-01-13T04:56:01.334Z,-15.64
2023-01-13T04:59:04.982Z,-15.44
2023-01-13T05:02:10.296Z,-15.54
2023-01-13T05:05:14.046Z,-15.94
2023-01-13T05:08:18.142Z,-15.98
2023-01-13T05:11:40.103Z,-15.97
2023-01-13T05:15:02.789Z,-16.00
2023-01-13T05:18:06.038Z,-15.84
2023-01-13T05:21:29.867Z,-15.86
2023-01-13T05:24:52.150Z,-15.93
2023-01-13T05:27:58.106Z,-15.93
2023-01-13T05:31:01.508Z,-15.91
2023-01-13T05:34:05.716Z,-15.90
2023-01-13T05:37:11.605Z,-16.00
2023-01-13T05:40:36.926Z,-16.04
2023-01-13T05:43:39.941Z,-16.09
2023-01-13T05:46:43.393Z,-16.00
2023-01-13T05:49:47.051Z,-15.82
2023-01-13T05:52:50.628Z,-15.96
2023-01-13T05:55:54.754Z,-16.25
2023-01-13T05:58:58.646Z,-16.05
2023-01-13T06:02:01.881Z,-16.09
2023-01-13T06:05:05.872Z,-16.15
2023-01-13T06:08:09.142Z,-15.97
2023-01-13T06:11:12.379Z,-16.01
2023-01-13T06:14:16.155Z,-16.07
2023-01-13T06:17:20.187Z,-16.28
2023-01-13T06:20:23.455Z,-16.32
2023-01-13T06:23:27.007Z,-16.23
2023-01-13T06:26:35.202Z,-16.28
2023-01-13T06:29:39.375Z,-16.30
2023-01-13T06:32:47.188Z,-16.29
2023-01-13T06:35:56.823Z,-16.22
2023-01-13T06:39:03.269Z,-16.20
2023-01-13T06:42:25.754Z,-16.19
2023-01-13T06:45:32.045Z,-16.02
2023-01-13T06:48:36.247Z,-15.94
2023-01-13T06:51:39.090Z,-16.02
2023-01-13T06:54:44.020Z,-15.98
2023-01-13T06:57:51.273Z,-15.97
2023-01-13T07:00:54.811Z,-16.02
2023-01-13T07:03:58.785Z,-16.16
2023-01-13T07:07:02.143Z,-16.29
2023-01-13T07:10:06.053Z,-16.58
2023-01-13T07:13:27.829Z,-16.52
2023-01-13T07:16:30.802Z,-16.39
2023-01-13T07:19:34.932Z,-16.28
2023-01-13T07:22:38.671Z,-16.34
2023-01-13T07:25:42.369Z,-16.44
2023-01-13T07:28:46.116Z,-16.40
2023-01-13T07:31:50.554Z,-16.29
2023-01-13T07:34:54.254Z,-16.23
2023-01-13T07:37:58.173Z,-16.42
2023-01-13T07:41:21.639Z,-16.49
2023-01-13T07:44:25.434Z,-16.65
2023-01-13T07:47:29.447Z,-16.70
2023-01-13T07:50:33.488Z,-16.75
2023-01-13T07:53:37.755Z,-16.67
2023-01-13T07:56:41.701Z,-16.58
2023-01-13T07:59:45.230Z,-16.65
2023-01-13T08:02:49.245Z,-16.74
2023-01-13T08:05:52.733Z,-16.89
2023-01-13T08:08:56.380Z,-16.89
2023-01-13T08:12:17.513Z,-16.94
2023-01-13T08:15:20.822Z,-16.89
2023-01-13T08:18:23.878Z,-16.95
2023-01-13T08:21:26.850Z,-17.20
2023-01-13T08:24:30.271Z,-17.25
2023-01-13T08:27:33.352Z,-17.34
2023-01-13T08:30:37.150Z,-17.28
2023-01-13T08:33:41.444Z,-17.28
2023-01-13T08:36:45.072Z,-17.50
2023-01-13T08:39:49.725Z,-17.67
2023-01-13T08:42:54.441Z,-17.77
2023-01-13T08:46:05.439Z,-17.89
2023-01-13T08:49:09.374Z,-17.98
2023-01-13T08:52:14.083Z,-18.14
2023-01-13T08:55:18.051Z,-18.13
2023-01-13T08:58:21.288Z,-18.28
2023-01-13T09:01:25.858Z,-18.36
2023-01-13T09:04:30.548Z,-18.41
2023-01-13T09:07:35.811Z,-18.37
2023-01-13T09:10:57.398Z,-18.48
2023-01-13T09:14:03.201Z,-18.59
2023-01-13T09:17:07.993Z,-18.54
2023-01-13T09:20:12.222Z,-18.52
2023-01-13T09:23:15.646Z,-18.60
2023-01-13T09:26:21.929Z,-18.61
2023-01-13T09:29:25.914Z,-18.69
2023-01-13T09:32:29.586Z,-18.60
2023-01-13T09:35:33.582Z,-18.60
2023-01-13T09:38:36.554Z,-18.59
2023-01-13T09:42:05.284Z,-18.66
2023-01-13T09:45:17.151Z,-18.81
2023-01-13T09:48:23.738Z,-18.86
2023-01-13T09:51:40.395Z,-18.85
2023-01-13T09:54:47.491Z,-18.83
2023-01-13T09:57:51.108Z,-18.91
2023-01-13T10:01:30.873Z,-18.93
2023-01-13T10:04:34.726Z,-18.83
2023-01-13T10:07:41.041Z,-18.84
2023-01-13T10:10:50.803Z,-18.86
2023-01-13T10:13:59.732Z,-18.91
2023-01-13T10:17:25.169Z,-18.90
2023-01-13T10:20:37.926Z,-18.87
2023-01-13T10:24:10.099Z,-18.87
2023-01-13T10:27:28.439Z,-18.89
2023-01-13T10:30:39.776Z,-18.89
2023-01-13T10:33:42.933Z,-18.94
2023-01-13T10:37:14.245Z,-18.91
2023-01-13T10:40:19.211Z,-18.90
2023-01-13T10:43:23.014Z,-19.02
2023-01-13T10:46:28.061Z,-18.93
2023-01-13T10:49:34.182Z,-18.93
2023-01-13T10:52:44.043Z,-18.98
2023-01-13T10:56:00.665Z,-19.12
2023-01-13T10:59:23.508Z,-19.21
2023-01-13T11:02:30.624Z,-19.21
2023-01-13T11:05:34.442Z,-19.22
2023-01-13T11:08:46.516Z,-19.28
2023-01-13T11:11:56.890Z,-19.23
2023-01-13T11:15:09.456Z,-19.19
2023-01-13T11:18:37.038Z,-19.11
2023-01-13T11:22:04.050Z,-19.16
2023-01-13T11:25:16.189Z,-19.28
2023-01-13T11:28:38.834Z,-19.41
2023-01-13T11:31:49.450Z,-19.72
2023-01-13T11:35:02.491Z,-19.94
2023-01-13T11:38:15.655Z,-20.12
2023-01-13T11:41:28.029Z,-20.37
2023-01-13T11:44:42.431Z,-20.49
2023-01-13T11:47:51.936Z,-20.59
2023-01-13T11:51:05.540Z,-20.54
2023-01-13T11:54:27.273Z,-20.61
2023-01-13T11:57:42.990Z,-20.75
2023-01-13T12:01:25.100Z,-20.71
2023-01-13T12:04:34.221Z,-20.70
2023-01-13T12:07:59.619Z,-20.62
2023-01-13T12:11:15.067Z,-20.57
2023-01-13T12:14:37.006Z,-20.55
2023-01-13T12:17:43.537Z,-20.48
2023-01-13T12:21:17.763Z,-20.37
2023-01-13T12:24:24.575Z,-20.29
2023-01-13T12:28:00.825Z,-20.24
2023-01-13T12:31:04.901Z,-20.11
2023-01-13T12:34:11.942Z,-19.97
2023-01-13T12:37:27.900Z,-19.83
2023-01-13T12:40:55.503Z,-19.83
2023-01-13T12:44:18.265Z,-19.92
2023-01-13T12:47:44.208Z,-19.92
2023-01-13T12:51:01.679Z,-20.00
2023-01-13T12:54:31.250Z,-20.05
2023-01-13T12:57:35.627Z,-20.01
2023-01-13T13:00:42.407Z,-19.93
2023-01-13T13:04:09.522Z,-20.07
2023-01-13T13:07:27.355Z,-20.23
2023-01-13T13:10:38.753Z,-20.43
2023-01-13T13:13:46.511Z,-20.61
2023-01-13T13:16:53.816Z,-20.78
2023-01-13T13:19:58.356Z,-20.80
2023-01-13T13:23:02.259Z,-20.75
2023-01-13T13:26:21.405Z,-20.72
2023-01-13T13:29:51.420Z,-20.61
2023-01-13T13:33:09.292Z,-20.42
2023-01-13T13:36:51.509Z,-20.33
2023-01-13T13:40:14.209Z,-20.48
2023-01-13T13:43:36.615Z,-20.51
2023-01-13T13:46:49.616Z,-20.58
2023-01-13T13:49:57.785Z,-20.50
2023-01-13T13:53:05.930Z,-20.55
2023-01-13T13:56:20.866Z,-20.52
2023-01-13T13:59:27.936Z,-20.57
2023-01-13T14:02:35.454Z,-20.55
2023-01-13T14:05:39.461Z,-20.73
2023-01-13T14:08:50.143Z,-20.81
2023-01-13T14:11:59.303Z,-20.87
2023-01-13T14:15:04.327Z,-20.89
2023-01-13T14:18:15.056Z,-20.90
2023-01-13T14:21:24.755Z,-20.96
2023-01-13T14:24:29.537Z,-20.96
2023-01-13T14:27:34.859Z,-21.03
2023-01-13T14:30:39.162Z,-21.02
2023-01-13T14:33:51.517Z,-21.01
2023-01-13T14:36:55.829Z,-21.06
2023-01-13T14:39:59.617Z,-21.07
2023-01-13T14:43:16.777Z,-21.11
2023-01-13T14:46:23.698Z,-21.20
2023-01-13T14:49:42.271Z,-21.28
2023-01-13T14:52:57.759Z,-21.38
2023-01-13T14:56:01.973Z,-21.28
2023-01-13T14:59:34.040Z,-21.33
2023-01-13T15:02:41.071Z,-21.34
2023-01-13T15:05:50.263Z,-21.39
2023-01-13T15:08:54.668Z,-21.41
2023-01-13T15:12:17.652Z,-21.45
2023-01-13T15:15:38.076Z,-21.68
2023-01-13T15:18:42.167Z,-21.81
2023-01-13T15:21:46.533Z,-21.65
2023-01-13T15:24:50.751Z,-21.60
2023-01-13T15:27:54.500Z,-21.55
2023-01-13T15:31:04.171Z,-21.59
2023-01-13T15:34:08.414Z,-21.61
2023-01-13T15:37:12.130Z,-21.49
2023-01-13T15:40:20.154Z,-21.44
2023-01-13T15:43:42.886Z,-21.47
2023-01-13T15:46:46.986Z,-21.43
2023-01-13T15:49:50.810Z,-21.43
2023-01-13T15:52:54.799Z,-21.43
2023-01-13T15:56:00.550Z,-21.38
2023-01-13T15:59:06.057Z,-21.33
2023-01-13T16:02:23.249Z,-21.28
2023-01-13T16:05:27.339Z,-21.10
2023-01-13T16:08:31.633Z,-21.18
2023-01-13T16:11:35.292Z,-21.12
2023-01-13T16:14:39.220Z,-21.18
2023-01-13T16:17:45.334Z,-21.03
2023-01-13T16:20:53.389Z,-21.03
2023-01-13T16:23:57.139Z,-20.94
2023-01-13T16:27:00.826Z,-20.91
2023-01-13T16:30:04.693Z,-20.83
2023-01-13T16:33:07.598Z,-20.88
2023-01-13T16:36:20.958Z,-20.84
2023-01-13T16:39:25.996Z,-20.89
2023-01-13T16:42:30.054Z,-20.90
2023-01-13T16:45:35.115Z,-20.80
2023-01-13T16:48:38.835Z,-20.70
2023-01-13T16:51:44.350Z,-20.69
2023-01-13T16:54:48.078Z,-20.74
2023-01-13T16:57:52.381Z,-20.71
2023-01-13T17:00:56.098Z,-20.71
2023-01-13T17:04:00.229Z,-20.75
2023-01-13T17:07:08.783Z,-20.76
2023-01-13T17:10:18.578Z,-20.84
2023-01-13T17:13:22.910Z,-20.90
2023-01-13T17:16:27.072Z,-20.90
2023-01-13T17:19:31.097Z,-20.92
2023-01-13T17:22:34.793Z,-20.94
2023-01-13T17:25:38.493Z,-21.08
2023-01-13T17:28:47.179Z,-21.16
2023-01-13T17:31:52.033Z,-21.29
2023-01-13T17:34:56.158Z,-21.52
2023-01-13T17:37:59.759Z,-21.55
2023-01-13T17:41:05.285Z,-21.63
2023-01-13T17:44:10.772Z,-21.71
2023-01-13T17:47:15.200Z,-21.78
2023-01-13T17:50:18.915Z,-21.82
2023-01-13T17:53:22.782Z,-22.00
2023-01-13T17:56:26.505Z,-22.08
2023-01-13T17:59:30.555Z,-22.20
2023-01-13T18:02:34.220Z,-22.28
2023-01-13T18:05:39.324Z,-22.34
2023-01-13T18:08:42.993Z,-22.40
2023-01-13T18:11:47.479Z,-22.44
2023-01-13T18:14:51.255Z,-22.53
2023-01-13T18:17:55.305Z,-22.57
2023-01-13T18:21:17.554Z,-22.62
2023-01-13T18:24:40.142Z,-22.71
2023-01-13T18:27:43.133Z,-22.78
2023-01-13T18:30:46.641Z,-22.78
2023-01-13T18:33:50.808Z,-22.83
2023-01-13T18:36:54.503Z,-22.87
2023-01-13T18:39:58.132Z,-22.84
2023-01-13T18:43:02.501Z,-22.79
2023-01-13T18:46:06.216Z,-22.79
2023-01-13T18:49:10.170Z,-22.72
2023-01-13T18:52:13.614Z,-22.64
2023-01-13T18:55:17.770Z,-22.63
2023-01-13T18:58:21.111Z,-22.58
2023-01-13T19:01:26.672Z,-22.54
2023-01-13T19:04:29.939Z,-22.57
2023-01-13T19:07:35.689Z,-22.61
2023-01-13T19:10:40.261Z,-22.54
2023-01-13T19:13:44.135Z,-22.50
2023-01-13T19:16:48.026Z,-22.60
2023-01-13T19:19:56.202Z,-22.71
2023-01-13T19:22:59.737Z,-22.83
2023-01-13T19:26:08.897Z,-22.77
2023-01-13T19:29:11.806Z,-22.81
2023-01-13T19:32:16.231Z,-22.86
2023-01-13T19:35:20.605Z,-22.89
2023-01-13T19:38:25.497Z,-22.75
2023-01-13T19:41:47.272Z,-22.81
2023-01-13T19:45:10.302Z,-22.64
2023-01-13T19:48:16.762Z,-22.59
2023-01-13T19:51:20.753Z,-22.53
2023-01-13T19:54:24.580Z,-22.52
2023-01-13T19:57:28.785Z,-22.50
2023-01-13T20:00:32.470Z,-22.56
2023-01-13T20:03:38.616Z,-22.52
2023-01-13T20:06:42.240Z,-22.42
2023-01-13T20:09:46.095Z,-22.51
2023-01-13T20:12:49.542Z,-22.64
2023-01-13T20:15:53.481Z,-22.72
2023-01-13T20:18:57.720Z,-22.92
2023-01-13T20:22:01.627Z,-23.12
2023-01-13T20:25:05.897Z,-23.22
2023-01-13T20:28:09.407Z,-23.16
2023-01-13T20:31:14.106Z,-23.13
2023-01-13T20:34:21.146Z,-23.19
2023-01-13T20:37:24.814Z,-23.26
2023-01-13T20:40:28.303Z,-23.38
2023-01-13T20:43:32.021Z,-23.42
2023-01-13T20:46:36.279Z,-23.35
2023-01-13T20:49:39.202Z,-23.50
2023-01-13T20:52:42.717Z,-23.55
2023-01-13T20:55:45.674Z,-23.60
2023-01-13T20:58:48.688Z,-23.77
2023-01-13T21:01:51.671Z,-23.88
2023-01-13T21:04:54.583Z,-23.97
2023-01-13T21:07:57.422Z,-24.02
2023-01-13T21:11:04.897Z,-24.09
2023-01-13T21:14:36.235Z,-24.17
2023-01-13T21:17:59.072Z,-24.13
2023-01-13T21:21:11.985Z,-24.20
2023-01-13T21:24:15.346Z,-24.24
2023-01-13T21:27:18.402Z,-24.32
2023-01-13T21:30:22.440Z,-24.50
2023-01-13T21:33:25.294Z,-24.45
2023-01-13T21:36:28.917Z,-24.43
2023-01-13T21:39:31.758Z,-24.32
2023-01-13T21:42:53.062Z,-24.50
2023-01-13T21:46:14.855Z,-24.41
2023-01-13T21:49:18.764Z,-24.46
2023-01-13T21:52:25.878Z,-24.58
2023-01-13T21:55:30.798Z,-24.87
2023-01-13T21:58:33.711Z,-24.94
2023-01-13T22:01:37.618Z,-25.04
2023-01-13T22:05:02.642Z,-25.29
2023-01-13T22:08:06.156Z,-25.67
2023-01-13T22:11:08.938Z,-25.53
2023-01-13T22:14:14.840Z,-25.37
2023-01-13T22:17:18.363Z,-25.26
2023-01-13T22:20:22.596Z,-25.24
2023-01-13T22:23:26.309Z,-25.17
2023-01-13T22:26:30.623Z,-25.09
2023-01-13T22:29:34.628Z,-24.83
2023-01-13T22:32:39.740Z,-24.70
2023-01-13T22:35:42.948Z,-24.90
2023-01-13T22:38:47.161Z,-25.38
2023-01-13T22:41:50.784Z,-25.60
2023-01-13T22:44:54.725Z,-25.57
2023-01-13T22:47:59.032Z,-25.72
2023-01-13T22:51:10.646Z,-26.00
2023-01-13T22:54:15.210Z,-26.03
2023-01-13T22:57:18.913Z,-26.30
2023-01-13T23:00:22.971Z,-26.65
2023-01-13T23:03:26.806Z,-26.77
2023-01-13T23:06:31.746Z,-27.01
2023-01-13T23:09:35.333Z,-26.97
2023-01-13T23:12:39.475Z,-26.93
2023-01-13T23:15:43.136Z,-26.91
2023-01-13T23:18:48.568Z,-26.86
2023-01-13T23:21:52.201Z,-26.98
2023-01-13T23:24:55.875Z,-26.88
2023-01-13T23:27:59.523Z,-26.61
2023-01-13T23:31:11.535Z,-26.86
2023-01-13T23:34:15.352Z,-26.77
2023-01-13T23:37:19.714Z,-26.63
2023-01-13T23:40:23.188Z,-26.56
2023-01-13T23:43:27.733Z,-26.51
2023-01-13T23:46:33.539Z,-26.38
2023-01-13T23:49:37.492Z,-26.36
2023-01-13T23:52:41.160Z,-26.36
2023-01-13T23:55:45.123Z,-26.19
2023-01-13T23:58:49.805Z,-26.23
